Flight Track Log - Related Links

Times and Time Zones

All times are in EDT time to prevent confusion due to time zone crossing. See the EJA396 flight status page for this flight to view local times or setup timezone preferences in your user account.

Time Position Orientation Groundspeed Altitude Reporting Facility
EDT Latitude Longitude Course Direction KTS MPH feet Rate Location/Type
Fri 08:54:35 AM 37.9939 -84.6553 226° Southwest 214 246 3,700  Level Indianapolis Center
Fri 08:55:37 AM 37.9444 -84.7203 226° Southwest 242 278 7,300 3,463 Climbing Indianapolis Center
Fri 08:56:38 AM 37.9892 -84.7839 312° West 305 351 10,800 3,366 Climbing Indianapolis Center
Fri 08:57:40 AM 38.0639 -84.7250 32° Northeast 315 362 14,200 3,242 Climbing Indianapolis Center
Fri 08:58:42 AM 38.1458 -84.6667 29° Northeast 332 382 17,500 2,903 Climbing Indianapolis Center
Fri 08:59:44 AM 38.2281 -84.6053 30° Northeast 340 391 20,200 2,780 Climbing Indianapolis Center
Fri 09:00:45 AM 38.3097 -84.5456 30° Northeast 338 389 23,200 3,171 Climbing Indianapolis Center
Fri 09:01:47 AM 38.4053 -84.4728 31° Northeast 340 391 26,700 2,903 Climbing Indianapolis Center
Fri 09:02:49 AM 38.4889 -84.4117 30° Northeast 345 397 29,200 2,177 Climbing Indianapolis Center
Fri 09:03:51 AM 38.5744 -84.3475 30° Northeast 351 404 31,200 1,790 Climbing Indianapolis Center
Fri 09:04:53 AM 38.6633 -84.2811 30° Northeast 365 420 32,900 1,548 Climbing Indianapolis Center
Fri 09:05:55 AM 38.7544 -84.2117 31° Northeast 376 433 34,400 1,452 Climbing Indianapolis Center
Fri 09:06:57 AM 38.8475 -84.1425 30° Northeast 384 442 35,900 1,355 Climbing Indianapolis Center
Fri 09:07:59 AM 38.9556 -84.0600 31° Northeast 384 442 37,200 1,024 Climbing Indianapolis Center
Fri 09:09:00 AM 39.0486 -83.9894 30° Northeast 387 445 38,000 390 Climbing Indianapolis Center
Fri 09:10:02 AM 39.1433 -83.9181 30° Northeast 390 449 38,000  Level Indianapolis Center
Fri 09:11:04 AM 39.2447 -83.8394 31° Northeast 397 457 38,000  Level Indianapolis Center
Fri 09:12:06 AM 39.3408 -83.7667 30° Northeast 398 458 38,000  Level Indianapolis Center
Fri 09:13:08 AM 39.4356 -83.6933 31° Northeast 396 456 38,000  Level Indianapolis Center
Fri 09:14:10 AM 39.5328 -83.6181 31° Northeast 401 461 38,000  Level Indianapolis Center
Fri 09:15:12 AM 39.6281 -83.5447 31° Northeast 398 458 38,000  Level Indianapolis Center
Fri 09:16:14 AM 39.7239 -83.4714 30° Northeast 398 458 38,000  Level Indianapolis Center
Fri 09:17:16 AM 39.8200 -83.3969 31° Northeast 399 459 38,000  Level Indianapolis Center
Fri 09:18:18 AM 39.9344 -83.3067 31° Northeast 399 459 38,000  Level Indianapolis Center
Fri 09:19:20 AM 40.0264 -83.2339 31° Northeast 403 464 38,000 48 Level Indianapolis Center
Fri 09:20:22 AM 40.1233 -83.1578 31° Northeast 402 463 38,100 387 Climbing Indianapolis Center
Fri 09:21:24 AM 40.2194 -83.0822 31° Northeast 400 460 38,800 435 Climbing Indianapolis Center
Fri 09:22:26 AM 40.3139 -83.0044 32° Northeast 399 459 39,000 97 Climbing Indianapolis Center
Fri 09:23:28 AM 40.4275 -82.9172 30° Northeast 400 460 39,000  Level Indianapolis Center
Fri 09:24:30 AM 40.5219 -82.8400 32° Northeast 397 457 39,000  Level Indianapolis Center
Fri 09:25:33 AM 40.6164 -82.7639 31° Northeast 395 455 39,000  Level Indianapolis Center
Fri 09:26:35 AM 40.7117 -82.6883 31° Northeast 396 456 39,000  Level Indianapolis Center
Fri 09:27:37 AM 40.8061 -82.6122 31° Northeast 395 455 39,000  Level Indianapolis Center
Fri 09:28:23 AM 40.8817 -82.5392 36° Northeast 396 456 39,000  Level Cleveland Center
Fri 09:29:25 AM 40.9283 -82.3925 67° East 432 497 39,000  Level Cleveland Center
Fri 09:30:27 AM 40.9636 -82.2403 73° East 433 498 39,000  Level Cleveland Center
Fri 09:31:29 AM 40.9975 -82.0875 74° East 431 496 39,000  Level Cleveland Center
Fri 09:32:31 AM 41.0325 -81.9347 73° East 431 496 39,000  Level Cleveland Center
Fri 09:33:33 AM 41.0711 -81.7569 74° East 430 495 39,000  Level Cleveland Center
Fri 09:34:35 AM 41.1053 -81.6042 73° East 434 499 39,000  Level Cleveland Center
Fri 09:35:37 AM 41.1361 -81.4664 73° East 435 501 39,000  Level Cleveland Center
Fri 09:36:39 AM 41.1728 -81.2986 74° East 432 497 39,000  Level Cleveland Center
Fri 09:37:41 AM 41.2064 -81.1450 74° East 433 498 39,000  Level Cleveland Center
Fri 09:38:44 AM 41.2450 -80.9633 74° East 436 502 39,000  Level Cleveland Center
Fri 09:39:46 AM 41.2786 -80.8081 74° East 436 502 39,000  Level Cleveland Center
Fri 09:40:48 AM 41.3114 -80.6533 74° East 434 499 39,000  Level Cleveland Center
Fri 09:41:50 AM 41.3444 -80.4986 74° East 434 499 39,000  Level Cleveland Center
Fri 09:42:52 AM 41.3767 -80.3419 75° East 436 502 39,000  Level Cleveland Center
Fri 09:43:54 AM 41.4128 -80.1692 74° East 438 504 39,000  Level Cleveland Center
Fri 09:44:56 AM 41.4453 -80.0136 74° East 437 503 39,000  Level Cleveland Center
Fri 09:45:58 AM 41.4800 -79.8450 75° East 439 505 39,000  Level Cleveland Center
Fri 09:47:00 AM 41.5114 -79.6875 75° East 441 507 39,000  Level Cleveland Center
Fri 09:48:02 AM 41.5431 -79.5300 75° East 441 507 39,000  Level Cleveland Center
Fri 09:49:04 AM 41.5739 -79.3736 75° East 438 504 39,000  Level Cleveland Center
Fri 09:50:06 AM 41.6056 -79.2181 75° East 434 499 39,000  Level Cleveland Center
Fri 09:51:09 AM 41.6422 -79.0278 75° East 439 505 39,000  Level Cleveland Center
Fri 09:52:11 AM 41.6725 -78.8700 76° East 439 505 39,000  Level Cleveland Center
Fri 09:53:13 AM 41.7033 -78.7125 75° East 439 505 39,000  Level Cleveland Center
Fri 09:54:15 AM 41.7333 -78.5539 76° East 439 505 39,000  Level Cleveland Center
Fri 09:55:17 AM 41.7636 -78.3978 75° East 436 502 39,000  Level Cleveland Center
Fri 09:56:19 AM 41.7933 -78.2417 76° East 434 499 39,000 -726 Level Cleveland Center
Fri 09:57:21 AM 41.8283 -78.0533 76° East 434 499 37,500 -1,790 Descending Cleveland Center
Fri 09:58:23 AM 41.8556 -77.9000 77° East 427 491 35,300 -1,515 Descending Cleveland Center
Fri 09:59:00 AM 41.8489 -77.7961 95° East 420 483 35,000 -184 Descending New York Center
Fri 10:00:01 AM 41.8064 -77.6331 109° East 437 503 35,000  Level New York Center
Fri 10:01:01 AM 41.7619 -77.4644 109° East 455 524 35,000  Level New York Center
Fri 10:02:02 AM 41.7169 -77.2986 110° East 466 536 35,000  Level New York Center
Fri 10:03:02 AM 41.6739 -77.1306 109° East 471 542 35,000  Level New York Center
Fri 10:04:01 AM 41.6286 -76.9653 110° East 471 542 35,000 -50 Level New York Center
Fri 10:05:02 AM 41.5808 -76.8000 111° Southeast 471 542 34,900 -1,059 Descending New York Center
Fri 10:06:00 AM 41.5442 -76.6581 109° East 471 542 32,900 -2,218 Descending New York Center
Fri 10:07:01 AM 41.5000 -76.4992 110° East 459 528 30,500 -2,380 Descending New York Center
Fri 10:08:01 AM 41.4575 -76.3403 110° East 459 528 28,100 -2,459 Descending New York Center
Fri 10:09:03 AM 41.4131 -76.1761 110° East 464 534 25,500 -2,471 Descending New York Center
Fri 10:10:00 AM 41.3642 -76.0119 112° Southeast 445 512 23,200 -2,359 Descending New York Center
Fri 10:11:00 AM 41.3244 -75.8736 111° Southeast 422 486 20,900 -2,182 Descending New York Center
Fri 10:12:01 AM 41.2844 -75.7353 111° Southeast 408 470 18,800 -1,426 Descending New York Center
Fri 10:13:02 AM 41.2419 -75.5997 113° Southeast 402 463 18,000 -595 Descending New York Center
Fri 10:14:02 AM 41.1994 -75.4669 113° Southeast 392 451 17,600 -1,831 Descending New York Center
Fri 10:15:00 AM 41.1603 -75.3514 114° Southeast 385 443 14,400 -3,203 Descending New York Center
Fri 10:16:00 AM 41.1153 -75.2189 114° Southeast 371 427 11,300 -2,750 Descending New York Center
Fri 10:17:00 AM 41.0797 -75.1147 114° Southeast 334 384 8,900 -2,200 Descending New York Center
Fri 10:18:00 AM 41.0475 -75.0217 115° Southeast 294 338 6,900 -1,450 Descending New York Center
Fri 10:19:00 AM 41.0153 -74.9372 117° Southeast 265 305 6,000 -541 Descending New York Center
Fri 10:20:02 AM 40.9767 -74.8497 120° Southeast 267 307 5,800 -639 Descending New York Center
Fri 10:21:02 AM 40.9397 -74.7678 121° Southeast 267 307 4,700 -900 Descending New York Center
Fri 10:22:02 AM 40.9050 -74.6889 120° Southeast 256 295 4,000 -508 Descending New York Center
Fri 10:23:00 AM 40.8681 -74.6100 122° Southeast 256 295 3,700 -475 Descending New York Center
Fri 10:23:43 AM 40.8333 -74.5500 127° Southeast 256 295 3,200 -408 Descending New York TRACON
Fri 10:24:43 AM 40.8000 -74.4667 118° Southeast 258 297 3,000 -100 Descending New York TRACON
Fri 10:25:43 AM 40.7500 -74.4167 143° Southeast 254 292 3,000 -250 Level New York TRACON
Fri 10:26:43 AM 40.7167 -74.3333 118° Southeast 206 237 2,500 -500 Descending New York TRACON
Fri 10:27:43 AM 40.7167 -74.2667 90° East 193 222 2,000 -400 Descending New York TRACON
Fri 10:28:43 AM 40.7500 -74.2167 49° Northeast 186 214 1,700 -250 Descending New York TRACON
Fri 10:29:43 AM 40.7833 -74.1667 49° Northeast 177 204 1,500 -198 Descending New York TRACON
Fri 10:30:44 AM 40.8000 -74.1167 66° East 137 158 1,300 -300 Descending New York TRACON
Fri 10:31:43 AM 40.8167 -74.0833 57° Northeast 117 135 900 -407 Descending New York TRACON
Fri 10:33:00 AM 40.8500 -74.0500 69° East  Level FlightAware Approximate
Fri 10:40:00 AM 40.8501 -74.0608 69° East  Level Estimated
Fri 10:41:00 AM 40.8501 -74.0608 69° East  Level Estimated

Login

Don't have an account? Register now (free) for customized features, flight alerts, and more!